sensor_id;sensor_type;location;lat;lon;timestamp;pressure;altitude;pressure_sealevel;temperature;humidity
77889;BME280;67082;41.704;44.768;2023-07-29T00:00:25;95246.28;;;22.35;51.36
77889;BME280;67082;41.704;44.768;2023-07-29T00:03:14;95247.41;;;22.13;52.28
77889;BME280;67082;41.704;44.768;2023-07-29T00:05:43;95241.75;;;22.13;51.90
77889;BME280;67082;41.704;44.768;2023-07-29T00:08:11;95234.38;;;22.10;51.46
77889;BME280;67082;41.704;44.768;2023-07-29T00:10:39;95233.94;;;22.19;51.26
77889;BME280;67082;41.704;44.768;2023-07-29T00:13:07;95239.03;;;22.08;51.84
77889;BME280;67082;41.704;44.768;2023-07-29T00:15:35;95237.66;;;22.14;51.42
77889;BME280;67082;41.704;44.768;2023-07-29T00:18:04;95246.13;;;22.14;51.26
77889;BME280;67082;41.704;44.768;2023-07-29T00:20:32;95238.72;;;22.11;51.61
77889;BME280;67082;41.704;44.768;2023-07-29T00:23:01;95233.06;;;22.11;51.35
77889;BME280;67082;41.704;44.768;2023-07-29T00:25:30;95244.81;;;22.15;51.40
77889;BME280;67082;41.704;44.768;2023-07-29T00:28:00;95251.31;;;22.10;51.60
77889;BME280;67082;41.704;44.768;2023-07-29T00:30:27;95234.72;;;22.20;51.38
77889;BME280;67082;41.704;44.768;2023-07-29T00:32:56;95228.31;;;22.19;51.79
77889;BME280;67082;41.704;44.768;2023-07-29T00:35:24;95242.53;;;22.14;52.05
77889;BME280;67082;41.704;44.768;2023-07-29T00:37:52;95229.91;;;22.02;52.04
77889;BME280;67082;41.704;44.768;2023-07-29T00:40:21;95246.84;;;22.02;52.05
77889;BME280;67082;41.704;44.768;2023-07-29T00:42:50;95235.19;;;21.92;52.78
77889;BME280;67082;41.704;44.768;2023-07-29T00:45:18;95240.16;;;21.86;53.03
77889;BME280;67082;41.704;44.768;2023-07-29T00:47:47;95256.53;;;21.88;52.35
77889;BME280;67082;41.704;44.768;2023-07-29T00:50:17;95237.09;;;21.84;52.57
77889;BME280;67082;41.704;44.768;2023-07-29T00:52:45;95235.69;;;21.78;52.73
77889;BME280;67082;41.704;44.768;2023-07-29T00:55:13;95239.69;;;21.82;52.46
77889;BME280;67082;41.704;44.768;2023-07-29T00:57:42;95237.09;;;21.84;52.21
77889;BME280;67082;41.704;44.768;2023-07-29T01:00:15;95233.53;;;21.84;52.21
77889;BME280;67082;41.704;44.768;2023-07-29T01:02:44;95236.22;;;21.76;52.76
77889;BME280;67082;41.704;44.768;2023-07-29T01:05:15;95230.09;;;21.72;52.75
77889;BME280;67082;41.704;44.768;2023-07-29T01:10:43;95224.94;;;21.76;52.03
77889;BME280;67082;41.704;44.768;2023-07-29T01:13:26;95255.09;;;21.81;51.52
77889;BME280;67082;41.704;44.768;2023-07-29T01:16:21;95239.38;;;21.86;51.55
77889;BME280;67082;41.704;44.768;2023-07-29T01:18:52;95242.75;;;21.84;51.41
77889;BME280;67082;41.704;44.768;2023-07-29T01:21:22;95250.09;;;21.74;51.53
77889;BME280;67082;41.704;44.768;2023-07-29T01:23:53;95242.75;;;21.84;51.15
77889;BME280;67082;41.704;44.768;2023-07-29T01:26:21;95233.69;;;21.91;50.57
77889;BME280;67082;41.704;44.768;2023-07-29T01:28:49;95241.81;;;21.95;50.60
77889;BME280;67082;41.704;44.768;2023-07-29T01:31:44;95257.09;;;21.86;50.75
77889;BME280;67082;41.704;44.768;2023-07-29T01:34:24;95249.63;;;21.89;50.21
77889;BME280;67082;41.704;44.768;2023-07-29T01:36:54;95262.56;;;21.97;50.19
77889;BME280;67082;41.704;44.768;2023-07-29T01:39:32;95261.47;;;22.00;50.49
77889;BME280;67082;41.704;44.768;2023-07-29T01:42:04;95262.09;;;21.93;50.27
77889;BME280;67082;41.704;44.768;2023-07-29T01:44:34;95265.75;;;21.88;50.52
77889;BME280;67082;41.704;44.768;2023-07-29T01:47:03;95262.59;;;21.79;51.38
77889;BME280;67082;41.704;44.768;2023-07-29T01:49:31;95288.81;;;21.74;51.79
77889;BME280;67082;41.704;44.768;2023-07-29T01:52:00;95261.06;;;21.78;50.71
77889;BME280;67082;41.704;44.768;2023-07-29T01:54:29;95282.16;;;21.90;50.13
77889;BME280;67082;41.704;44.768;2023-07-29T01:56:59;95284.00;;;21.87;50.62
77889;BME280;67082;41.704;44.768;2023-07-29T01:59:27;95292.53;;;21.82;50.79
77889;BME280;67082;41.704;44.768;2023-07-29T02:01:55;95305.09;;;21.81;51.10
77889;BME280;67082;41.704;44.768;2023-07-29T02:04:24;95301.06;;;21.76;51.31
77889;BME280;67082;41.704;44.768;2023-07-29T02:06:52;95293.91;;;21.75;50.95
77889;BME280;67082;41.704;44.768;2023-07-29T02:09:20;95302.06;;;21.97;51.03
77889;BME280;67082;41.704;44.768;2023-07-29T02:11:48;95273.44;;;22.06;51.01
77889;BME280;67082;41.704;44.768;2023-07-29T02:14:17;95288.34;;;21.88;51.33
77889;BME280;67082;41.704;44.768;2023-07-29T02:16:45;95285.56;;;22.01;51.30
77889;BME280;67082;41.704;44.768;2023-07-29T02:19:33;95282.38;;;22.23;50.77
77889;BME280;67082;41.704;44.768;2023-07-29T02:22:01;95287.47;;;22.43;50.21
77889;BME280;67082;41.704;44.768;2023-07-29T02:24:30;95283.84;;;22.87;48.53
77889;BME280;67082;41.704;44.768;2023-07-29T02:26:58;95287.44;;;23.14;47.90
77889;BME280;67082;41.704;44.768;2023-07-29T02:29:26;95283.09;;;23.13;48.16
77889;BME280;67082;41.704;44.768;2023-07-29T02:31:55;95286.00;;;22.94;48.74
77889;BME280;67082;41.704;44.768;2023-07-29T02:34:23;95295.16;;;23.00;48.85
77889;BME280;67082;41.704;44.768;2023-07-29T02:36:51;95268.00;;;22.97;49.14
77889;BME280;67082;41.704;44.768;2023-07-29T02:39:20;95278.84;;;22.93;49.11
77889;BME280;67082;41.704;44.768;2023-07-29T02:41:48;95279.75;;;23.01;49.16
77889;BME280;67082;41.704;44.768;2023-07-29T02:44:17;95297.56;;;22.96;49.07
77889;BME280;67082;41.704;44.768;2023-07-29T02:46:47;95300.25;;;23.02;48.58
77889;BME280;67082;41.704;44.768;2023-07-29T02:49:15;95285.16;;;22.86;49.10
77889;BME280;67082;41.704;44.768;2023-07-29T02:51:43;95293.41;;;22.97;49.07
77889;BME280;67082;41.704;44.768;2023-07-29T02:54:11;95278.97;;;23.01;48.70
77889;BME280;67082;41.704;44.768;2023-07-29T02:56:40;95296.25;;;22.84;49.38
77889;BME280;67082;41.704;44.768;2023-07-29T02:59:08;95273.44;;;22.95;48.84
77889;BME280;67082;41.704;44.768;2023-07-29T03:01:36;95284.31;;;23.17;48.93
77889;BME280;67082;41.704;44.768;2023-07-29T03:04:06;95287.66;;;23.16;48.61
77889;BME280;67082;41.704;44.768;2023-07-29T03:06:34;95284.72;;;23.08;48.66
77889;BME280;67082;41.704;44.768;2023-07-29T03:09:03;95291.72;;;23.20;48.47
77889;BME280;67082;41.704;44.768;2023-07-29T03:11:31;95302.34;;;23.01;49.34
77889;BME280;67082;41.704;44.768;2023-07-29T03:14:00;95326.59;;;23.10;49.01
77889;BME280;67082;41.704;44.768;2023-07-29T03:16:30;95309.31;;;23.13;48.55
77889;BME280;67082;41.704;44.768;2023-07-29T03:19:00;95289.09;;;23.22;48.29
77889;BME280;67082;41.704;44.768;2023-07-29T03:21:28;95296.81;;;23.35;47.94
77889;BME280;67082;41.704;44.768;2023-07-29T03:23:56;95291.09;;;23.61;47.49
77889;BME280;67082;41.704;44.768;2023-07-29T03:26:25;95291.56;;;23.52;47.19
77889;BME280;67082;41.704;44.768;2023-07-29T03:28:53;95276.13;;;23.53;47.67
77889;BME280;67082;41.704;44.768;2023-07-29T03:31:21;95288.63;;;23.44;47.64
77889;BME280;67082;41.704;44.768;2023-07-29T03:33:49;95307.34;;;23.34;48.06
77889;BME280;67082;41.704;44.768;2023-07-29T03:36:17;95313.56;;;23.33;47.76
77889;BME280;67082;41.704;44.768;2023-07-29T03:38:47;95321.28;;;23.32;48.26
77889;BME280;67082;41.704;44.768;2023-07-29T03:41:15;95304.53;;;23.34;47.79
77889;BME280;67082;41.704;44.768;2023-07-29T03:43:43;95295.03;;;23.58;47.15
77889;BME280;67082;41.704;44.768;2023-07-29T03:46:11;95298.75;;;23.53;47.47
77889;BME280;67082;41.704;44.768;2023-07-29T03:48:42;95319.84;;;23.52;46.82
77889;BME280;67082;41.704;44.768;2023-07-29T03:51:10;95297.97;;;23.65;47.20
77889;BME280;67082;41.704;44.768;2023-07-29T03:53:38;95289.69;;;23.67;47.12
77889;BME280;67082;41.704;44.768;2023-07-29T03:56:07;95301.19;;;23.82;46.80
77889;BME280;67082;41.704;44.768;2023-07-29T03:58:36;95307.63;;;23.70;46.37
77889;BME280;67082;41.704;44.768;2023-07-29T04:01:03;95290.75;;;23.77;46.60
77889;BME280;67082;41.704;44.768;2023-07-29T04:03:33;95309.25;;;23.78;46.27
77889;BME280;67082;41.704;44.768;2023-07-29T04:06:02;95293.56;;;23.90;47.04
77889;BME280;67082;41.704;44.768;2023-07-29T04:08:31;95281.72;;;23.92;46.69
77889;BME280;67082;41.704;44.768;2023-07-29T04:10:59;95282.91;;;23.83;47.69
77889;BME280;67082;41.704;44.768;2023-07-29T04:13:28;95281.94;;;23.81;47.74
77889;BME280;67082;41.704;44.768;2023-07-29T04:15:55;95275.16;;;23.97;47.00
77889;BME280;67082;41.704;44.768;2023-07-29T04:18:24;95274.06;;;23.87;47.50
77889;BME280;67082;41.704;44.768;2023-07-29T04:20:52;95279.63;;;23.92;46.99
77889;BME280;67082;41.704;44.768;2023-07-29T04:23:20;95286.34;;;24.02;47.32
77889;BME280;67082;41.704;44.768;2023-07-29T04:25:48;95287.38;;;23.92;46.77
77889;BME280;67082;41.704;44.768;2023-07-29T04:28:18;95292.13;;;23.84;46.50
77889;BME280;67082;41.704;44.768;2023-07-29T04:30:46;95296.41;;;23.90;46.73
77889;BME280;67082;41.704;44.768;2023-07-29T04:33:15;95280.00;;;24.09;46.68
77889;BME280;67082;41.704;44.768;2023-07-29T04:35:43;95288.03;;;24.18;46.00
77889;BME280;67082;41.704;44.768;2023-07-29T04:38:11;95286.09;;;24.13;46.35
77889;BME280;67082;41.704;44.768;2023-07-29T04:40:39;95288.44;;;24.22;46.41
77889;BME280;67082;41.704;44.768;2023-07-29T04:43:08;95289.97;;;24.23;46.48
77889;BME280;67082;41.704;44.768;2023-07-29T04:45:36;95287.59;;;24.14;46.42
77889;BME280;67082;41.704;44.768;2023-07-29T04:48:04;95284.00;;;23.93;47.49
77889;BME280;67082;41.704;44.768;2023-07-29T04:50:32;95289.06;;;24.08;46.96
77889;BME280;67082;41.704;44.768;2023-07-29T04:53:00;95284.56;;;24.12;46.93
77889;BME280;67082;41.704;44.768;2023-07-29T04:55:28;95282.00;;;24.22;46.54
77889;BME280;67082;41.704;44.768;2023-07-29T04:57:57;95276.53;;;24.03;47.15
77889;BME280;67082;41.704;44.768;2023-07-29T05:00:25;95267.84;;;24.01;47.26
77889;BME280;67082;41.704;44.768;2023-07-29T05:02:53;95285.78;;;24.04;46.71
77889;BME280;67082;41.704;44.768;2023-07-29T05:05:21;95273.94;;;24.05;47.08
77889;BME280;67082;41.704;44.768;2023-07-29T05:07:50;95281.09;;;24.06;46.37
77889;BME280;67082;41.704;44.768;2023-07-29T05:10:18;95291.31;;;24.09;46.36
77889;BME280;67082;41.704;44.768;2023-07-29T05:12:47;95278.47;;;24.08;46.60
77889;BME280;67082;41.704;44.768;2023-07-29T05:15:15;95277.03;;;24.15;46.65
77889;BME280;67082;41.704;44.768;2023-07-29T05:17:45;95281.94;;;24.14;46.96
77889;BME280;67082;41.704;44.768;2023-07-29T05:20:13;95283.53;;;24.23;46.41
77889;BME280;67082;41.704;44.768;2023-07-29T05:22:41;95286.94;;;24.21;46.93
77889;BME280;67082;41.704;44.768;2023-07-29T05:25:10;95292.38;;;24.19;46.71
77889;BME280;67082;41.704;44.768;2023-07-29T05:27:38;95271.28;;;24.07;46.91
77889;BME280;67082;41.704;44.768;2023-07-29T05:30:07;95291.13;;;24.07;47.29
77889;BME280;67082;41.704;44.768;2023-07-29T05:32:36;95273.66;;;23.96;47.66
77889;BME280;67082;41.704;44.768;2023-07-29T05:35:06;95268.91;;;24.11;46.92
77889;BME280;67082;41.704;44.768;2023-07-29T05:37:38;95270.59;;;24.14;47.18
77889;BME280;67082;41.704;44.768;2023-07-29T05:40:08;95268.13;;;24.11;46.40
77889;BME280;67082;41.704;44.768;2023-07-29T05:42:37;95264.59;;;24.18;46.95
77889;BME280;67082;41.704;44.768;2023-07-29T05:45:06;95261.44;;;24.21;46.84
77889;BME280;67082;41.704;44.768;2023-07-29T05:47:35;95253.22;;;24.31;46.01
77889;BME280;67082;41.704;44.768;2023-07-29T05:50:03;95269.19;;;24.41;45.79
77889;BME280;67082;41.704;44.768;2023-07-29T05:52:33;95264.13;;;24.47;46.04
77889;BME280;67082;41.704;44.768;2023-07-29T05:55:01;95257.50;;;24.45;46.01
77889;BME280;67082;41.704;44.768;2023-07-29T05:57:30;95258.28;;;24.45;46.08
77889;BME280;67082;41.704;44.768;2023-07-29T05:59:58;95260.41;;;24.52;45.56
77889;BME280;67082;41.704;44.768;2023-07-29T06:02:31;95253.75;;;24.50;45.56
77889;BME280;67082;41.704;44.768;2023-07-29T06:04:59;95251.41;;;24.61;45.23
77889;BME280;67082;41.704;44.768;2023-07-29T06:07:30;95254.25;;;24.61;44.91
77889;BME280;67082;41.704;44.768;2023-07-29T06:10:00;95262.75;;;24.61;45.10
77889;BME280;67082;41.704;44.768;2023-07-29T06:12:30;95268.09;;;24.65;45.14
77889;BME280;67082;41.704;44.768;2023-07-29T06:14:58;95258.63;;;24.62;44.97
77889;BME280;67082;41.704;44.768;2023-07-29T06:17:26;95262.09;;;24.76;45.01
77889;BME280;67082;41.704;44.768;2023-07-29T06:19:54;95266.69;;;24.79;44.66
77889;BME280;67082;41.704;44.768;2023-07-29T06:22:23;95257.09;;;24.82;43.95
77889;BME280;67082;41.704;44.768;2023-07-29T06:24:51;95253.88;;;24.85;43.76
77889;BME280;67082;41.704;44.768;2023-07-29T06:27:19;95251.66;;;24.91;43.59
77889;BME280;67082;41.704;44.768;2023-07-29T06:29:48;95267.75;;;24.96;43.32
77889;BME280;67082;41.704;44.768;2023-07-29T06:32:16;95250.53;;;24.94;43.36
77889;BME280;67082;41.704;44.768;2023-07-29T06:34:46;95251.31;;;24.95;43.40
77889;BME280;67082;41.704;44.768;2023-07-29T06:37:15;95243.75;;;24.97;43.56
77889;BME280;67082;41.704;44.768;2023-07-29T06:39:43;95260.78;;;24.97;43.94
77889;BME280;67082;41.704;44.768;2023-07-29T06:42:11;95253.44;;;25.02;43.79
77889;BME280;67082;41.704;44.768;2023-07-29T06:44:40;95258.78;;;25.13;43.29
77889;BME280;67082;41.704;44.768;2023-07-29T06:47:08;95245.56;;;25.15;43.36
77889;BME280;67082;41.704;44.768;2023-07-29T06:49:36;95255.91;;;25.05;43.63
77889;BME280;67082;41.704;44.768;2023-07-29T06:52:05;95251.38;;;25.10;43.73
77889;BME280;67082;41.704;44.768;2023-07-29T06:54:33;95251.78;;;25.14;43.66
77889;BME280;67082;41.704;44.768;2023-07-29T06:57:01;95253.16;;;25.20;43.89
77889;BME280;67082;41.704;44.768;2023-07-29T06:59:29;95255.84;;;25.26;43.42
77889;BME280;67082;41.704;44.768;2023-07-29T07:01:57;95248.03;;;25.19;43.24
77889;BME280;67082;41.704;44.768;2023-07-29T07:04:27;95238.28;;;25.27;43.25
77889;BME280;67082;41.704;44.768;2023-07-29T07:06:55;95251.00;;;25.34;43.04
77889;BME280;67082;41.704;44.768;2023-07-29T07:09:23;95251.56;;;25.32;42.25
77889;BME280;67082;41.704;44.768;2023-07-29T07:11:52;95239.06;;;25.35;43.33
77889;BME280;67082;41.704;44.768;2023-07-29T07:14:20;95236.84;;;25.41;43.37
77889;BME280;67082;41.704;44.768;2023-07-29T07:16:48;95237.63;;;25.49;43.59
77889;BME280;67082;41.704;44.768;2023-07-29T07:19:16;95233.28;;;25.48;43.46
77889;BME280;67082;41.704;44.768;2023-07-29T07:21:45;95249.72;;;25.42;42.88
77889;BME280;67082;41.704;44.768;2023-07-29T07:24:12;95244.97;;;25.45;43.05
77889;BME280;67082;41.704;44.768;2023-07-29T07:26:41;95231.59;;;25.53;42.90
77889;BME280;67082;41.704;44.768;2023-07-29T07:29:09;95222.91;;;25.58;42.85
77889;BME280;67082;41.704;44.768;2023-07-29T07:31:37;95218.78;;;25.59;42.21
77889;BME280;67082;41.704;44.768;2023-07-29T07:34:05;95224.81;;;25.63;42.66
77889;BME280;67082;41.704;44.768;2023-07-29T07:36:33;95226.69;;;25.61;41.94
77889;BME280;67082;41.704;44.768;2023-07-29T07:39:02;95221.75;;;25.54;42.16
77889;BME280;67082;41.704;44.768;2023-07-29T07:41:30;95218.19;;;25.61;41.72
77889;BME280;67082;41.704;44.768;2023-07-29T07:43:58;95212.72;;;25.63;41.45
77889;BME280;67082;41.704;44.768;2023-07-29T07:46:26;95211.56;;;25.58;41.48
77889;BME280;67082;41.704;44.768;2023-07-29T07:48:55;95221.03;;;25.61;41.66
77889;BME280;67082;41.704;44.768;2023-07-29T07:51:23;95192.69;;;25.68;41.22
77889;BME280;67082;41.704;44.768;2023-07-29T07:53:51;95221.25;;;25.70;40.77
77889;BME280;67082;41.704;44.768;2023-07-29T07:56:19;95213.06;;;25.52;40.71
77889;BME280;67082;41.704;44.768;2023-07-29T07:58:48;95206.81;;;25.53;40.46
77889;BME280;67082;41.704;44.768;2023-07-29T08:01:18;95213.66;;;25.58;40.84
77889;BME280;67082;41.704;44.768;2023-07-29T08:03:47;95188.50;;;25.69;40.47
77889;BME280;67082;41.704;44.768;2023-07-29T08:06:15;95188.94;;;25.81;40.82
77889;BME280;67082;41.704;44.768;2023-07-29T08:08:43;95184.38;;;25.85;40.09
77889;BME280;67082;41.704;44.768;2023-07-29T08:11:11;95188.41;;;25.97;40.16
77889;BME280;67082;41.704;44.768;2023-07-29T08:13:40;95169.69;;;25.94;39.66
77889;BME280;67082;41.704;44.768;2023-07-29T08:16:08;95175.94;;;26.00;39.79
77889;BME280;67082;41.704;44.768;2023-07-29T08:18:36;95161.75;;;26.00;39.54
77889;BME280;67082;41.704;44.768;2023-07-29T08:21:04;95168.34;;;26.10;38.78
77889;BME280;67082;41.704;44.768;2023-07-29T08:23:33;95199.41;;;26.08;38.33
77889;BME280;67082;41.704;44.768;2023-07-29T08:26:05;95168.00;;;26.06;37.33
77889;BME280;67082;41.704;44.768;2023-07-29T08:28:39;95166.84;;;26.09;37.52
77889;BME280;67082;41.704;44.768;2023-07-29T08:31:07;95155.69;;;26.19;37.58
77889;BME280;67082;41.704;44.768;2023-07-29T08:33:36;95148.31;;;26.23;36.65
77889;BME280;67082;41.704;44.768;2023-07-29T08:36:04;95156.44;;;26.27;36.92
77889;BME280;67082;41.704;44.768;2023-07-29T08:38:32;95145.84;;;26.35;37.56
77889;BME280;67082;41.704;44.768;2023-07-29T08:41:24;95148.28;;;26.31;36.39
77889;BME280;67082;41.704;44.768;2023-07-29T08:44:41;95144.13;;;26.39;36.14
77889;BME280;67082;41.704;44.768;2023-07-29T08:47:02;95151.91;;;26.46;35.39
77889;BME280;67082;41.704;44.768;2023-07-29T08:49:31;95154.19;;;26.40;34.94
77889;BME280;67082;41.704;44.768;2023-07-29T08:52:01;95135.59;;;26.39;35.22
77889;BME280;67082;41.704;44.768;2023-07-29T08:54:29;95144.88;;;26.47;35.10
77889;BME280;67082;41.704;44.768;2023-07-29T08:56:58;95133.69;;;26.42;34.33
77889;BME280;67082;41.704;44.768;2023-07-29T08:59:28;95127.81;;;26.62;34.68
77889;BME280;67082;41.704;44.768;2023-07-29T09:01:57;95140.91;;;26.65;33.69
77889;BME280;67082;41.704;44.768;2023-07-29T09:04:25;95133.31;;;26.53;33.71
77889;BME280;67082;41.704;44.768;2023-07-29T09:06:55;95134.66;;;26.59;34.43
77889;BME280;67082;41.704;44.768;2023-07-29T09:09:25;95136.00;;;26.58;33.60
77889;BME280;67082;41.704;44.768;2023-07-29T09:11:53;95142.03;;;26.62;34.32
77889;BME280;67082;41.704;44.768;2023-07-29T09:14:21;95133.50;;;26.62;33.92
77889;BME280;67082;41.704;44.768;2023-07-29T09:16:51;95128.38;;;26.68;34.57
77889;BME280;67082;41.704;44.768;2023-07-29T09:19:19;95121.75;;;26.73;34.95
77889;BME280;67082;41.704;44.768;2023-07-29T09:21:50;95111.31;;;26.76;35.23
77889;BME280;67082;41.704;44.768;2023-07-29T09:24:20;95117.75;;;26.76;34.61
77889;BME280;67082;41.704;44.768;2023-07-29T09:26:50;95112.06;;;26.84;35.13
77889;BME280;67082;41.704;44.768;2023-07-29T09:29:22;95115.66;;;26.84;35.25
77889;BME280;67082;41.704;44.768;2023-07-29T09:31:52;95109.78;;;26.82;35.49
77889;BME280;67082;41.704;44.768;2023-07-29T09:34:20;95116.94;;;26.98;35.04
77889;BME280;67082;41.704;44.768;2023-07-29T09:36:50;95110.16;;;26.86;34.54
77889;BME280;67082;41.704;44.768;2023-07-29T09:39:22;95108.22;;;26.96;34.67
77889;BME280;67082;41.704;44.768;2023-07-29T09:41:51;95099.88;;;26.98;33.50
77889;BME280;67082;41.704;44.768;2023-07-29T09:44:19;95103.28;;;27.04;33.44
77889;BME280;67082;41.704;44.768;2023-07-29T09:46:48;95089.19;;;27.14;33.57
77889;BME280;67082;41.704;44.768;2023-07-29T09:49:17;95107.41;;;27.18;33.12
77889;BME280;67082;41.704;44.768;2023-07-29T09:51:46;95112.50;;;27.27;33.36
77889;BME280;67082;41.704;44.768;2023-07-29T09:54:14;95101.72;;;27.18;32.71
77889;BME280;67082;41.704;44.768;2023-07-29T09:56:43;95081.06;;;27.18;32.73
77889;BME280;67082;41.704;44.768;2023-07-29T09:59:12;95097.50;;;27.27;31.82
77889;BME280;67082;41.704;44.768;2023-07-29T10:01:41;95091.25;;;27.28;32.59
77889;BME280;67082;41.704;44.768;2023-07-29T10:04:10;95104.34;;;27.24;32.02
77889;BME280;67082;41.704;44.768;2023-07-29T10:06:41;95104.34;;;27.24;31.83
77889;BME280;67082;41.704;44.768;2023-07-29T10:09:13;95091.81;;;27.27;32.42
77889;BME280;67082;41.704;44.768;2023-07-29T10:11:42;95084.03;;;27.27;32.31
77889;BME280;67082;41.704;44.768;2023-07-29T10:14:11;95090.25;;;27.33;32.54
77889;BME280;67082;41.704;44.768;2023-07-29T10:16:40;95087.28;;;27.24;32.03
77889;BME280;67082;41.704;44.768;2023-07-29T10:19:10;95071.56;;;27.15;31.34
77889;BME280;67082;41.704;44.768;2023-07-29T10:21:39;95091.44;;;27.23;31.49
77889;BME280;67082;41.704;44.768;2023-07-29T10:24:15;95075.91;;;27.24;31.39
77889;BME280;67082;41.704;44.768;2023-07-29T10:26:46;95086.16;;;27.19;31.15
77889;BME280;67082;41.704;44.768;2023-07-29T10:29:19;95081.53;;;27.31;31.19
77889;BME280;67082;41.704;44.768;2023-07-29T10:31:54;95078.88;;;27.33;31.32
77889;BME280;67082;41.704;44.768;2023-07-29T10:34:25;95082.66;;;27.36;31.09
77889;BME280;67082;41.704;44.768;2023-07-29T10:36:55;95072.78;;;27.37;31.44
77889;BME280;67082;41.704;44.768;2023-07-29T10:39:26;95071.41;;;27.45;31.38
77889;BME280;67082;41.704;44.768;2023-07-29T10:41:55;95059.25;;;27.45;31.30
77889;BME280;67082;41.704;44.768;2023-07-29T10:44:50;95067.41;;;27.48;32.29
77889;BME280;67082;41.704;44.768;2023-07-29T10:47:20;95077.63;;;27.51;31.61
77889;BME280;67082;41.704;44.768;2023-07-29T10:49:54;95053.38;;;27.50;32.04
77889;BME280;67082;41.704;44.768;2023-07-29T10:55:03;95071.94;;;27.51;31.58
77889;BME280;67082;41.704;44.768;2023-07-29T10:57:50;95083.53;;;27.46;31.96
77889;BME280;67082;41.704;44.768;2023-07-29T11:00:21;95059.78;;;27.51;32.00
77889;BME280;67082;41.704;44.768;2023-07-29T11:03:01;95061.03;;;27.65;32.45
77889;BME280;67082;41.704;44.768;2023-07-29T11:06:04;95061.97;;;27.67;31.53
77889;BME280;67082;41.704;44.768;2023-07-29T11:08:33;95052.25;;;27.70;31.06
77889;BME280;67082;41.704;44.768;2023-07-29T11:11:04;95049.78;;;27.74;30.77
77889;BME280;67082;41.704;44.768;2023-07-29T11:13:35;95056.59;;;27.79;30.76
77889;BME280;67082;41.704;44.768;2023-07-29T11:16:05;95062.66;;;27.75;30.94
77889;BME280;67082;41.704;44.768;2023-07-29T11:18:35;95050.91;;;27.79;30.98
77889;BME280;67082;41.704;44.768;2023-07-29T11:21:04;95050.50;;;27.82;30.50
77889;BME280;67082;41.704;44.768;2023-07-29T11:23:34;95043.91;;;27.97;30.80
77889;BME280;67082;41.704;44.768;2023-07-29T11:26:03;95046.19;;;27.98;30.97
77889;BME280;67082;41.704;44.768;2023-07-29T11:28:38;95055.59;;;28.08;30.81
77889;BME280;67082;41.704;44.768;2023-07-29T11:31:07;95055.09;;;28.02;30.16
77889;BME280;67082;41.704;44.768;2023-07-29T11:33:38;95055.31;;;27.97;30.59
77889;BME280;67082;41.704;44.768;2023-07-29T11:36:17;95046.53;;;28.02;30.87
77889;BME280;67082;41.704;44.768;2023-07-29T11:38:46;95046.94;;;27.99;30.24
77889;BME280;67082;41.704;44.768;2023-07-29T11:41:19;95043.34;;;27.98;31.06
77889;BME280;67082;41.704;44.768;2023-07-29T11:43:47;95058.63;;;28.10;30.64
77889;BME280;67082;41.704;44.768;2023-07-29T11:46:15;95044.03;;;28.06;30.60
77889;BME280;67082;41.704;44.768;2023-07-29T11:48:48;95041.41;;;28.01;31.49
77889;BME280;67082;41.704;44.768;2023-07-29T11:51:16;95040.53;;;28.15;31.07
77889;BME280;67082;41.704;44.768;2023-07-29T11:53:45;95035.34;;;28.21;30.39
77889;BME280;67082;41.704;44.768;2023-07-29T11:56:13;95040.03;;;28.26;30.10
77889;BME280;67082;41.704;44.768;2023-07-29T11:58:42;95025.63;;;28.24;30.50
77889;BME280;67082;41.704;44.768;2023-07-29T12:01:10;95039.97;;;28.33;29.13
77889;BME280;67082;41.704;44.768;2023-07-29T12:03:38;95040.63;;;28.24;29.25
77889;BME280;67082;41.704;44.768;2023-07-29T12:06:11;95019.09;;;28.31;29.97
77889;BME280;67082;41.704;44.768;2023-07-29T12:08:39;95021.19;;;28.30;30.34
77889;BME280;67082;41.704;44.768;2023-07-29T12:11:08;95032.34;;;28.36;29.49
77889;BME280;67082;41.704;44.768;2023-07-29T12:13:37;95026.47;;;28.34;28.88
77889;BME280;67082;41.704;44.768;2023-07-29T12:16:05;95017.91;;;28.34;29.25
77889;BME280;67082;41.704;44.768;2023-07-29T12:18:35;95015.84;;;28.34;30.28
77889;BME280;67082;41.704;44.768;2023-07-29T12:21:04;95016.94;;;28.39;30.48
77889;BME280;67082;41.704;44.768;2023-07-29T12:23:32;95016.94;;;28.39;28.43
77889;BME280;67082;41.704;44.768;2023-07-29T12:26:00;95031.38;;;28.41;28.67
77889;BME280;67082;41.704;44.768;2023-07-29T12:28:30;95012.75;;;28.40;28.64
77889;BME280;67082;41.704;44.768;2023-07-29T12:30:58;95017.53;;;28.38;28.99
77889;BME280;67082;41.704;44.768;2023-07-29T12:33:37;95015.31;;;28.28;28.42
77889;BME280;67082;41.704;44.768;2023-07-29T12:36:09;95017.75;;;28.32;27.97
77889;BME280;67082;41.704;44.768;2023-07-29T12:38:38;95007.72;;;28.31;29.20
77889;BME280;67082;41.704;44.768;2023-07-29T12:41:06;95004.19;;;28.40;26.80
77889;BME280;67082;41.704;44.768;2023-07-29T12:43:35;95000.34;;;28.45;27.12
77889;BME280;67082;41.704;44.768;2023-07-29T12:46:03;94996.75;;;28.45;28.03
77889;BME280;67082;41.704;44.768;2023-07-29T12:48:32;94994.84;;;28.47;27.41
77889;BME280;67082;41.704;44.768;2023-07-29T12:51:00;95005.22;;;28.52;28.31
77889;BME280;67082;41.704;44.768;2023-07-29T12:53:28;94983.75;;;28.51;28.76
77889;BME280;67082;41.704;44.768;2023-07-29T12:55:56;95005.72;;;28.58;28.66
77889;BME280;67082;41.704;44.768;2023-07-29T12:58:25;95004.38;;;28.59;28.92
77889;BME280;67082;41.704;44.768;2023-07-29T13:00:53;94988.59;;;28.58;28.43
77889;BME280;67082;41.704;44.768;2023-07-29T13:03:22;95001.13;;;28.63;28.68
77889;BME280;67082;41.704;44.768;2023-07-29T13:05:51;94994.66;;;28.62;28.02
77889;BME280;67082;41.704;44.768;2023-07-29T13:08:20;94981.75;;;28.61;27.99